createdAt,value
2022-12-03T00:00:28.161Z,8.38
2022-12-03T00:02:54.782Z,8.13
2022-12-03T00:05:21.268Z,7.88
2022-12-03T00:07:47.708Z,9.23
2022-12-03T00:10:14.255Z,8.73
2022-12-03T00:12:40.674Z,8.23
2022-12-03T00:15:07.800Z,8.77
2022-12-03T00:17:34.172Z,8.65
2022-12-03T00:20:00.566Z,8.65
2022-12-03T00:22:26.962Z,7.68
2022-12-03T00:24:53.760Z,9.27
2022-12-03T00:27:20.359Z,8.40
2022-12-03T00:29:46.789Z,8.35
2022-12-03T00:32:14.070Z,9.15
2022-12-03T00:34:40.430Z,8.13
2022-12-03T00:37:06.890Z,8.55
2022-12-03T00:39:33.249Z,8.57
2022-12-03T00:41:59.621Z,8.50
2022-12-03T00:44:26.126Z,8.85
2022-12-03T00:46:52.514Z,9.30
2022-12-03T00:49:18.989Z,8.73
2022-12-03T00:51:45.430Z,8.75
2022-12-03T00:54:12.059Z,8.18
2022-12-03T00:56:38.476Z,9.05
2022-12-03T00:59:04.914Z,8.02
2022-12-03T01:01:31.372Z,9.18
2022-12-03T01:03:57.938Z,9.48
2022-12-03T01:06:24.305Z,7.75
2022-12-03T01:08:50.641Z,9.10
2022-12-03T01:11:40.114Z,8.93
2022-12-03T01:14:17.607Z,8.65
2022-12-03T01:16:44.410Z,8.57
2022-12-03T01:19:15.670Z,8.82
2022-12-03T01:21:43.005Z,9.27
2022-12-03T01:24:09.469Z,8.68
2022-12-03T01:26:35.956Z,9.07
2022-12-03T01:29:02.354Z,8.35
2022-12-03T01:31:47.771Z,9.00
2022-12-03T01:34:14.242Z,8.30
2022-12-03T01:36:41.027Z,9.02
2022-12-03T01:39:07.648Z,8.80
2022-12-03T01:41:35.717Z,9.00
2022-12-03T01:44:04.489Z,8.57
2022-12-03T01:46:41.841Z,8.82
2022-12-03T01:49:15.226Z,8.23
2022-12-03T01:51:41.698Z,10.02
2022-12-03T01:54:16.463Z,9.20
2022-12-03T01:56:43.237Z,9.13
2022-12-03T01:59:15.304Z,8.70
2022-12-03T02:01:41.702Z,8.95
2022-12-03T02:04:12.162Z,9.25
2022-12-03T02:06:38.719Z,9.75
2022-12-03T02:09:08.406Z,8.80
2022-12-03T02:11:43.535Z,9.38
2022-12-03T02:14:13.398Z,9.25
2022-12-03T02:16:41.915Z,9.07
2022-12-03T02:19:28.379Z,8.43
2022-12-03T02:22:05.139Z,9.13
2022-12-03T02:25:15.340Z,8.38
2022-12-03T02:27:42.461Z,8.45
2022-12-03T02:30:10.381Z,8.15
2022-12-03T02:32:37.319Z,9.25
2022-12-03T02:35:04.358Z,9.75
2022-12-03T02:37:34.851Z,10.02
2022-12-03T02:40:07.851Z,9.57
2022-12-03T02:42:37.266Z,9.88
2022-12-03T02:45:11.047Z,9.75
2022-12-03T02:48:09.235Z,8.63
2022-12-03T02:50:40.070Z,8.75
2022-12-03T02:53:09.544Z,9.20
2022-12-03T02:55:37.562Z,8.88
2022-12-03T02:58:05.003Z,8.63
2022-12-03T03:00:31.770Z,9.82
2022-12-03T03:02:58.405Z,8.85
2022-12-03T03:05:25.093Z,9.05
2022-12-03T03:07:51.884Z,9.48
2022-12-03T03:10:22.132Z,9.15
2022-12-03T03:12:49.333Z,9.25
2022-12-03T03:15:16.025Z,9.45
2022-12-03T03:17:42.818Z,8.98
2022-12-03T03:20:11.318Z,9.10
2022-12-03T03:22:41.315Z,8.43
2022-12-03T03:25:12.199Z,9.23
2022-12-03T03:27:41.163Z,9.82
2022-12-03T03:30:09.521Z,8.60
2022-12-03T03:32:37.123Z,8.88
2022-12-03T03:35:06.118Z,8.63
2022-12-03T03:37:32.673Z,9.20
2022-12-03T03:39:59.166Z,8.77
2022-12-03T03:42:25.689Z,9.95
2022-12-03T03:44:52.387Z,9.95
2022-12-03T03:47:20.052Z,9.30
2022-12-03T03:49:47.860Z,9.60
2022-12-03T03:54:40.522Z,8.63
2022-12-03T03:57:07.268Z,9.55
2022-12-03T03:59:33.726Z,9.30
2022-12-03T04:02:00.050Z,10.73
2022-12-03T04:04:30.374Z,9.50
2022-12-03T04:06:56.881Z,10.07
2022-12-03T04:09:23.297Z,9.45
2022-12-03T04:12:08.619Z,9.68
2022-12-03T04:14:34.950Z,8.32
2022-12-03T04:17:01.312Z,9.18
2022-12-03T04:19:27.716Z,9.73
2022-12-03T04:22:12.520Z,9.27
2022-12-03T04:24:38.892Z,9.45
2022-12-03T04:27:23.681Z,10.20
2022-12-03T04:29:50.001Z,9.82
2022-12-03T04:32:35.217Z,10.55
2022-12-03T04:35:20.206Z,11.20
2022-12-03T04:37:46.605Z,9.40
2022-12-03T04:40:31.822Z,10.00
2022-12-03T04:42:58.145Z,9.07
2022-12-03T04:45:24.512Z,9.32
2022-12-03T04:47:50.849Z,9.88
2022-12-03T04:50:17.174Z,10.10
2022-12-03T04:52:43.595Z,10.45
2022-12-03T04:55:10.082Z,10.27
2022-12-03T04:57:36.462Z,8.88
2022-12-03T05:00:05.072Z,10.13
2022-12-03T05:02:31.480Z,9.68
2022-12-03T05:07:33.141Z,10.57
2022-12-03T05:09:59.530Z,9.77
2022-12-03T05:12:25.869Z,10.35
2022-12-03T05:14:52.570Z,10.55
2022-12-03T05:17:19.013Z,10.52
2022-12-03T05:20:04.219Z,9.85
2022-12-03T05:22:30.561Z,10.18
2022-12-03T05:24:57.046Z,11.57
2022-12-03T05:27:24.262Z,11.05
2022-12-03T05:29:51.132Z,9.55
2022-12-03T05:32:17.529Z,9.23
2022-12-03T05:34:43.954Z,10.43
2022-12-03T05:37:10.311Z,9.65
2022-12-03T05:39:36.845Z,11.02
2022-12-03T05:42:21.954Z,11.52
2022-12-03T05:44:48.286Z,10.88
2022-12-03T05:47:14.860Z,10.48
2022-12-03T05:49:41.378Z,10.10
2022-12-03T05:52:07.925Z,10.35
2022-12-03T05:54:34.250Z,9.65
2022-12-03T05:57:00.676Z,9.95
2022-12-03T05:59:27.161Z,10.38
2022-12-03T06:01:53.492Z,10.80
2022-12-03T06:04:19.853Z,10.45
2022-12-03T06:06:46.193Z,11.02
2022-12-03T06:09:12.506Z,10.65
2022-12-03T06:11:40.168Z,9.98
2022-12-03T06:14:06.643Z,10.90
2022-12-03T06:16:33.024Z,10.18
2022-12-03T06:18:59.457Z,9.80
2022-12-03T06:21:25.813Z,9.70
2022-12-03T06:23:52.150Z,11.50
2022-12-03T06:26:18.570Z,10.75
2022-12-03T06:28:46.390Z,9.80
2022-12-03T06:33:39.767Z,9.98
2022-12-03T06:36:06.619Z,9.52
2022-12-03T06:38:32.975Z,9.55
2022-12-03T06:40:59.424Z,9.40
2022-12-03T06:43:40.946Z,9.45
2022-12-03T06:46:07.331Z,9.43
2022-12-03T06:48:33.677Z,8.93
2022-12-03T06:51:00.140Z,10.30
2022-12-03T06:53:26.473Z,10.43
2022-12-03T06:55:52.910Z,10.07
2022-12-03T06:58:19.234Z,9.98
2022-12-03T07:00:45.848Z,9.98
2022-12-03T07:03:12.337Z,10.00
2022-12-03T07:13:36.377Z,9.45
2022-12-03T07:18:38.039Z,9.13
2022-12-03T07:21:04.428Z,10.35
2022-12-03T07:23:30.747Z,10.43
2022-12-03T07:25:57.135Z,10.05
2022-12-03T07:28:23.449Z,8.65
2022-12-03T07:30:49.952Z,9.43
2022-12-03T07:33:16.280Z,11.68
2022-12-03T07:35:42.706Z,10.38
2022-12-03T07:38:09.035Z,9.95
2022-12-03T07:40:35.362Z,10.27
2022-12-03T07:43:01.805Z,10.05
2022-12-03T07:45:28.250Z,10.13
2022-12-03T07:47:54.598Z,9.10
2022-12-03T07:50:20.964Z,9.85
2022-12-03T07:52:47.397Z,9.07
2022-12-03T07:55:13.982Z,10.07
2022-12-03T07:57:40.365Z,10.45
2022-12-03T08:00:07.566Z,10.18
2022-12-03T08:02:34.000Z,10.23
2022-12-03T08:05:00.413Z,9.57
2022-12-03T08:07:26.767Z,9.82
2022-12-03T08:09:53.133Z,9.88
2022-12-03T08:12:42.852Z,10.52
2022-12-03T08:15:13.908Z,8.85
2022-12-03T08:17:42.197Z,9.57
2022-12-03T08:20:14.384Z,9.18
2022-12-03T08:22:42.569Z,9.55
2022-12-03T08:25:35.463Z,9.35
2022-12-03T08:28:12.048Z,8.45
2022-12-03T08:30:39.934Z,8.18
2022-12-03T08:35:44.693Z,8.68
2022-12-03T08:38:12.847Z,9.00
2022-12-03T08:40:41.569Z,8.85
2022-12-03T08:43:26.091Z,9.13
2022-12-03T08:45:57.022Z,9.77
2022-12-03T08:48:36.674Z,8.98
2022-12-03T08:51:11.089Z,9.10
2022-12-03T08:53:42.955Z,8.10
2022-12-03T08:56:23.942Z,9.35
2022-12-03T08:59:21.174Z,9.55
2022-12-03T09:01:48.832Z,9.07
2022-12-03T09:04:27.584Z,9.57
2022-12-03T09:06:54.756Z,9.10
2022-12-03T09:09:21.929Z,10.40
2022-12-03T09:11:48.415Z,9.23
2022-12-03T09:14:18.474Z,9.10
2022-12-03T09:16:45.429Z,9.35
2022-12-03T09:19:11.872Z,9.00
2022-12-03T09:21:38.225Z,9.60
2022-12-03T09:24:04.851Z,9.63
2022-12-03T09:26:31.348Z,9.10
2022-12-03T09:28:57.725Z,9.48
2022-12-03T09:31:24.386Z,9.30
2022-12-03T09:33:51.005Z,8.52
2022-12-03T09:36:17.397Z,10.07
2022-12-03T09:38:47.704Z,10.45
2022-12-03T09:41:14.682Z,8.85
2022-12-03T09:44:03.487Z,9.07
2022-12-03T09:46:28.979Z,8.63
2022-12-03T09:48:55.462Z,8.05
2022-12-03T09:51:22.609Z,7.85
2022-12-03T09:53:49.150Z,9.15
2022-12-03T09:56:20.404Z,8.80
2022-12-03T09:58:46.925Z,9.13
2022-12-03T10:01:15.170Z,9.48
2022-12-03T10:03:48.689Z,8.45
2022-12-03T10:06:21.250Z,8.82
2022-12-03T10:08:49.985Z,9.63
2022-12-03T10:11:18.633Z,8.65
2022-12-03T10:13:46.028Z,9.90
2022-12-03T10:16:15.430Z,9.85
2022-12-03T10:18:47.141Z,10.30
2022-12-03T10:21:20.307Z,9.20
2022-12-03T10:23:50.768Z,8.50
2022-12-03T10:26:35.811Z,9.05
2022-12-03T10:29:02.150Z,9.13
2022-12-03T10:31:35.629Z,9.60
2022-12-03T10:34:01.994Z,9.18
2022-12-03T10:36:28.377Z,8.98
2022-12-03T10:39:15.808Z,8.60
2022-12-03T10:41:44.143Z,8.52
2022-12-03T10:44:25.942Z,8.38
2022-12-03T10:47:13.263Z,8.90
2022-12-03T10:49:41.571Z,9.02
2022-12-03T10:52:25.709Z,8.85
2022-12-03T10:54:52.759Z,8.73
2022-12-03T10:57:19.500Z,8.68
2022-12-03T10:59:45.875Z,9.20
2022-12-03T11:02:19.955Z,9.25
2022-12-03T11:04:46.797Z,8.13
2022-12-03T11:07:16.040Z,7.57
2022-12-03T11:09:45.310Z,7.63
2022-12-03T11:12:22.030Z,9.05
2022-12-03T11:14:54.919Z,8.07
2022-12-03T11:17:42.867Z,8.25
2022-12-03T11:20:10.346Z,8.52
2022-12-03T11:22:41.388Z,7.50
2022-12-03T11:25:26.036Z,7.43
2022-12-03T11:28:13.486Z,7.35
2022-12-03T11:30:49.141Z,7.47
2022-12-03T11:33:32.934Z,8.13
2022-12-03T11:36:08.099Z,7.32
2022-12-03T11:38:37.491Z,11.15
2022-12-03T11:41:23.782Z,8.02
2022-12-03T11:43:53.168Z,6.72
2022-12-03T11:46:36.291Z,7.38
2022-12-03T11:49:18.744Z,7.70
2022-12-03T11:51:45.251Z,7.35
2022-12-03T11:54:16.368Z,7.22
2022-12-03T11:56:48.953Z,7.82
2022-12-03T11:59:17.236Z,7.72
2022-12-03T12:01:44.470Z,8.15
2022-12-03T12:04:30.001Z,7.45
2022-12-03T12:10:48.450Z,6.72
2022-12-03T12:13:30.195Z,7.07
2022-12-03T12:16:05.074Z,8.10
2022-12-03T12:18:38.572Z,7.00
2022-12-03T12:21:43.698Z,7.07
2022-12-03T12:24:30.994Z,7.75
2022-12-03T12:27:06.135Z,7.45
2022-12-03T12:29:32.573Z,7.32
2022-12-03T12:32:15.120Z,6.75
2022-12-03T12:34:44.612Z,7.00
2022-12-03T12:37:28.145Z,7.30
2022-12-03T12:39:56.910Z,6.22
2022-12-03T12:42:34.826Z,7.10
2022-12-03T12:45:16.531Z,6.68
2022-12-03T12:47:49.903Z,6.70
2022-12-03T12:50:18.296Z,7.00
2022-12-03T12:52:51.546Z,7.40
2022-12-03T12:55:18.953Z,8.27
2022-12-03T12:57:45.359Z,7.53
2022-12-03T13:00:23.336Z,8.20
2022-12-03T13:02:55.202Z,7.53
2022-12-03T13:05:21.849Z,8.77
2022-12-03T13:07:48.369Z,6.60
2022-12-03T13:10:24.413Z,6.95
2022-12-03T13:12:50.867Z,7.35
2022-12-03T13:15:35.810Z,7.85
2022-12-03T13:18:17.870Z,6.88
2022-12-03T13:20:44.211Z,6.35
2022-12-03T13:23:25.990Z,6.13
2022-12-03T13:26:09.255Z,6.07
2022-12-03T13:28:41.714Z,6.72
2022-12-03T13:31:26.130Z,6.97
2022-12-03T13:33:53.622Z,6.60
2022-12-03T13:36:22.472Z,6.82
2022-12-03T13:38:49.280Z,6.93
2022-12-03T13:41:38.256Z,6.75
2022-12-03T13:44:17.955Z,6.60
2022-12-03T13:46:45.433Z,6.93
2022-12-03T13:49:20.011Z,6.47
2022-12-03T13:51:47.234Z,8.15
2022-12-03T13:54:20.343Z,6.65
2022-12-03T13:56:46.845Z,5.75
2022-12-03T13:59:14.120Z,6.50
2022-12-03T14:01:40.699Z,6.25
2022-12-03T14:04:07.243Z,6.72
2022-12-03T14:06:33.822Z,6.32
2022-12-03T14:09:00.378Z,7.35
2022-12-03T14:11:45.119Z,5.75
2022-12-03T14:14:11.623Z,6.82
2022-12-03T14:16:38.031Z,6.78
2022-12-03T14:19:04.569Z,6.70
2022-12-03T14:21:30.938Z,6.95
2022-12-03T14:23:57.303Z,7.38
2022-12-03T14:26:23.666Z,6.60
2022-12-03T14:28:50.128Z,7.80
2022-12-03T14:31:16.554Z,5.85
2022-12-03T14:33:43.002Z,5.65
2022-12-03T14:36:09.537Z,6.68
2022-12-03T14:38:35.882Z,6.10
2022-12-03T14:41:02.383Z,6.05
2022-12-03T14:43:28.734Z,5.88
2022-12-03T14:45:55.273Z,5.55
2022-12-03T14:48:21.739Z,6.60
2022-12-03T14:50:48.191Z,5.25
2022-12-03T14:53:14.530Z,5.00
2022-12-03T14:55:40.959Z,5.28
2022-12-03T14:58:07.283Z,5.78
2022-12-03T15:00:33.704Z,6.22
2022-12-03T15:03:00.274Z,6.35
2022-12-03T15:05:28.764Z,6.03
2022-12-03T15:07:55.493Z,5.47
2022-12-03T15:10:21.921Z,6.40
2022-12-03T15:12:48.345Z,6.50
2022-12-03T15:15:14.989Z,5.25
2022-12-03T15:17:41.888Z,6.38
2022-12-03T15:20:08.814Z,6.00
2022-12-03T15:22:35.258Z,6.32
2022-12-03T15:25:03.338Z,5.50
2022-12-03T15:27:29.810Z,5.85
2022-12-03T15:29:56.472Z,7.10
2022-12-03T15:32:23.127Z,5.72
2022-12-03T15:34:51.277Z,6.57
2022-12-03T15:37:17.714Z,6.63
2022-12-03T15:39:48.375Z,8.75
2022-12-03T15:42:15.406Z,6.20
2022-12-03T15:44:41.737Z,5.75
2022-12-03T15:47:08.174Z,6.95
2022-12-03T15:49:34.582Z,7.25
2022-12-03T15:52:00.927Z,5.82
2022-12-03T15:54:27.232Z,6.47
2022-12-03T15:56:57.290Z,6.47
2022-12-03T15:59:24.042Z,7.63
2022-12-03T16:01:50.485Z,10.05
2022-12-03T16:04:17.175Z,7.90
2022-12-03T16:06:43.489Z,8.15
2022-12-03T16:09:09.921Z,8.68
2022-12-03T16:11:36.250Z,7.97
2022-12-03T16:14:02.601Z,6.15
2022-12-03T16:16:29.147Z,7.05
2022-12-03T16:18:55.544Z,7.32
2022-12-03T16:21:26.484Z,7.25
2022-12-03T16:23:53.637Z,7.15
2022-12-03T16:26:19.940Z,7.20
2022-12-03T16:28:46.303Z,8.43
2022-12-03T16:31:12.733Z,8.25
2022-12-03T16:33:39.105Z,5.90
2022-12-03T16:36:05.617Z,6.82
2022-12-03T16:38:33.542Z,6.18
2022-12-03T16:41:01.469Z,6.05
2022-12-03T16:43:28.173Z,7.60
2022-12-03T16:46:21.051Z,6.05
2022-12-03T16:48:48.223Z,6.15
2022-12-03T16:51:15.189Z,6.57
2022-12-03T16:53:41.652Z,6.18
2022-12-03T16:56:08.827Z,6.45
2022-12-03T16:58:35.316Z,6.15
2022-12-03T17:01:01.726Z,7.45
2022-12-03T17:03:33.607Z,6.95
2022-12-03T17:06:00.795Z,6.53
2022-12-03T17:08:27.213Z,5.30
2022-12-03T17:10:53.613Z,6.70
2022-12-03T17:13:20.100Z,8.10
2022-12-03T17:15:46.504Z,5.88
2022-12-03T17:18:12.879Z,6.60
2022-12-03T17:20:39.184Z,6.18
2022-12-03T17:23:05.491Z,6.10
2022-12-03T17:25:32.025Z,6.57
2022-12-03T17:27:58.405Z,6.35
2022-12-03T17:30:24.752Z,6.43
2022-12-03T17:32:51.084Z,7.22
2022-12-03T17:35:18.383Z,6.68
2022-12-03T17:37:45.131Z,6.57
2022-12-03T17:40:14.045Z,6.57
2022-12-03T17:42:40.555Z,6.20
2022-12-03T17:45:07.620Z,5.85
2022-12-03T17:47:34.055Z,7.05
2022-12-03T17:50:00.524Z,6.72
2022-12-03T17:52:26.935Z,6.32
2022-12-03T17:55:10.760Z,6.85
2022-12-03T18:00:06.391Z,6.47
2022-12-03T18:02:32.750Z,5.47
2022-12-03T18:04:59.336Z,5.35
2022-12-03T18:07:25.749Z,6.95
2022-12-03T18:09:53.330Z,6.63
2022-12-03T18:12:20.020Z,6.63
2022-12-03T18:14:46.370Z,6.35
2022-12-03T18:17:13.871Z,6.15
2022-12-03T18:19:40.282Z,5.63
2022-12-03T18:22:06.626Z,5.45
2022-12-03T18:24:33.331Z,6.45
2022-12-03T18:26:59.673Z,5.57
2022-12-03T18:29:26.154Z,5.90
2022-12-03T18:31:52.743Z,6.20
2022-12-03T18:34:19.143Z,6.28
2022-12-03T18:36:45.819Z,5.85
2022-12-03T18:39:22.953Z,6.32
2022-12-03T18:41:49.417Z,5.90
2022-12-03T18:44:15.856Z,6.55
2022-12-03T18:46:53.314Z,6.93
2022-12-03T18:49:20.915Z,7.72
2022-12-03T18:51:48.441Z,6.68
2022-12-03T18:54:15.405Z,6.90
2022-12-03T18:56:41.941Z,6.35
2022-12-03T18:59:09.076Z,5.78
2022-12-03T19:01:35.642Z,5.88
2022-12-03T19:04:02.128Z,6.90
2022-12-03T19:06:30.348Z,5.88
2022-12-03T19:08:56.837Z,7.38
2022-12-03T19:11:23.423Z,12.25
2022-12-03T19:13:49.898Z,6.80
2022-12-03T19:16:17.130Z,6.60
2022-12-03T19:18:44.211Z,6.35
2022-12-03T19:21:13.578Z,7.40
2022-12-03T19:23:40.031Z,6.38
2022-12-03T19:26:08.314Z,6.72
2022-12-03T19:28:35.317Z,6.38
2022-12-03T19:31:08.608Z,6.07
2022-12-03T19:33:35.575Z,6.03
2022-12-03T19:36:04.318Z,7.22
2022-12-03T19:38:31.539Z,7.18
2022-12-03T19:41:09.178Z,6.63
2022-12-03T19:43:36.803Z,6.10
2022-12-03T19:46:04.692Z,6.95
2022-12-03T19:48:32.195Z,7.03
2022-12-03T19:51:19.802Z,6.80
2022-12-03T19:53:46.048Z,5.45
2022-12-03T19:56:18.389Z,6.18
2022-12-03T19:58:46.377Z,5.97
2022-12-03T20:01:19.333Z,6.70
2022-12-03T20:03:48.073Z,6.13
2022-12-03T20:06:16.405Z,6.88
2022-12-03T20:08:43.038Z,7.32
2022-12-03T20:11:15.406Z,6.50
2022-12-03T20:13:42.889Z,6.85
2022-12-03T20:16:12.573Z,6.38
2022-12-03T20:18:40.456Z,6.28
2022-12-03T20:23:33.734Z,5.82
2022-12-03T20:26:00.511Z,6.22
2022-12-03T20:28:28.299Z,7.05
2022-12-03T20:31:02.741Z,7.38
2022-12-03T20:33:29.268Z,6.90
2022-12-03T20:35:56.921Z,6.97
2022-12-03T20:38:26.128Z,6.25
2022-12-03T20:40:53.839Z,5.70
2022-12-03T20:43:20.519Z,6.80
2022-12-03T20:45:46.913Z,7.20
2022-12-03T20:48:13.366Z,7.60
2022-12-03T20:50:39.871Z,6.78
2022-12-03T20:53:24.194Z,5.68
2022-12-03T20:55:58.477Z,5.95
2022-12-03T20:58:25.031Z,5.25
2022-12-03T21:00:51.561Z,5.70
2022-12-03T21:03:17.999Z,6.28
2022-12-03T21:05:44.434Z,7.75
2022-12-03T21:08:11.861Z,6.88
2022-12-03T21:10:45.870Z,6.40
2022-12-03T21:13:16.797Z,6.50
2022-12-03T21:15:44.234Z,6.63
2022-12-03T21:18:13.971Z,5.90
2022-12-03T21:20:45.656Z,6.55
2022-12-03T21:23:13.202Z,5.75
2022-12-03T21:25:40.391Z,5.90
2022-12-03T21:28:08.639Z,5.85
2022-12-03T21:30:38.374Z,6.28
2022-12-03T21:33:06.044Z,6.28
2022-12-03T21:35:32.642Z,6.68
2022-12-03T21:37:59.089Z,6.43
2022-12-03T21:40:25.407Z,6.75
2022-12-03T21:42:51.768Z,5.72
2022-12-03T21:45:18.218Z,6.25
2022-12-03T21:47:48.069Z,6.30
2022-12-03T21:50:14.639Z,6.20
2022-12-03T21:52:41.183Z,6.50
2022-12-03T21:55:07.891Z,5.65
2022-12-03T21:57:37.916Z,6.05
2022-12-03T22:00:07.678Z,5.88
2022-12-03T22:02:34.368Z,5.10
2022-12-03T22:05:00.742Z,6.65
2022-12-03T22:07:27.154Z,5.97
2022-12-03T22:09:53.947Z,6.13
2022-12-03T22:12:20.532Z,6.68
2022-12-03T22:14:46.875Z,6.00
2022-12-03T22:17:13.301Z,6.05
2022-12-03T22:19:39.844Z,6.22
2022-12-03T22:22:06.174Z,6.10
2022-12-03T22:24:32.534Z,5.43
2022-12-03T22:26:58.922Z,6.60
2022-12-03T22:29:25.303Z,5.85
2022-12-03T22:31:51.694Z,6.72
2022-12-03T22:34:18.049Z,6.78
2022-12-03T22:36:44.476Z,6.05
2022-12-03T22:39:10.905Z,6.22
2022-12-03T22:41:37.259Z,5.90
2022-12-03T22:44:03.872Z,6.32
2022-12-03T22:46:30.369Z,5.55
2022-12-03T22:49:00.515Z,5.40
2022-12-03T22:51:30.251Z,5.22
2022-12-03T22:53:58.451Z,5.32
2022-12-03T22:56:26.310Z,4.90
2022-12-03T23:01:27.956Z,5.72
2022-12-03T23:03:54.644Z,5.80
2022-12-03T23:06:22.546Z,5.50
2022-12-03T23:11:15.615Z,4.82
2022-12-03T23:13:42.396Z,5.72
2022-12-03T23:16:14.293Z,6.30
2022-12-03T23:18:41.084Z,5.25
2022-12-03T23:21:07.768Z,5.43
2022-12-03T23:23:34.264Z,5.35
2022-12-03T23:26:02.784Z,5.60
2022-12-03T23:28:30.938Z,5.10
2022-12-03T23:30:57.666Z,5.38
2022-12-03T23:33:24.441Z,5.45
2022-12-03T23:35:51.028Z,5.50
2022-12-03T23:38:17.744Z,4.65
2022-12-03T23:40:48.069Z,5.63
2022-12-03T23:43:15.278Z,5.95
2022-12-03T23:45:41.668Z,5.38
2022-12-03T23:48:08.048Z,4.63
2022-12-03T23:50:34.855Z,4.65
2022-12-03T23:53:01.236Z,4.72
2022-12-03T23:55:27.587Z,5.63
2022-12-03T23:57:53.926Z,5.18
